Kezdőlap
METAR-TAF:

METAR-TAF

Repülőterek :

Harare, Zimbabwe

földrajzi szélesség: 17-55S, földrajzi hosszúság: 031-08E, magasság: 1479 m

Jelenlegi meteorológiai megfigyelések

A jelentés 1 órával és 7 perccel ezelõtt készült, 00:00 UTC
Kelet-délkeleti szél 4 kt
Hőmérséklet 13°C
Páratartalom 77%
Légköri nyomás 1024 hPa
Látótávolság 10 km, vagy több
felhőtlen 1500 m magasságban, és nincs gomolyfelhõ

METAR: FVHA 240000Z 12004KT CAVOK 13/09 Q1024

Idő: 03:07 (01:07 UTC)

Előrejelzés

A jelentés 15 órával és 7 perccel ezelõtt készült, 10:00 UTC
Az előrejelzés 23-én 12 óra UTC és 24-én 18 óra UTC között érvényes
Különbözõ irányokból fújó szél 7 kt
Látótávolság 10 km, vagy több
felhőtlen 1500 m magasságban, és nincs gomolyfelhõ

TAF: FVHA 231000Z 2312/2418 VRB07KT CAVOK

Meteorológiai megfigyelések és előrejelzések több, mint 4000 repülőtéren (METAR és TAF jelentéseket).

A térképen piros és sárga pontok jelzik az elérhető meteorológiai állomásokat.

Mozgassa az egeret a pont fölött, hogy megjelenjen az állomás neve.

Azután kattintson az időjárási megfigyelések és előrejelzések megtekintéséhez.

A térkép megváltoztatása: kattintson a fekete keresztel jelölt zöld gombra ráközelítéshez, a vonallal jelölt zöld gombra távolításhoz, vagy a zöld nyilakra a szomszédos térképek eléréséhez.


METAR-TAF: